createdAt,value
2023-05-24T00:02:14.737Z,27.70
2023-05-24T00:04:42.341Z,19.55
2023-05-24T00:07:10.441Z,20.23
2023-05-24T00:09:38.342Z,23.02
2023-05-24T00:12:08.801Z,18.20
2023-05-24T00:14:36.771Z,17.38
2023-05-24T00:17:03.600Z,21.88
2023-05-24T00:19:32.372Z,24.38
2023-05-24T00:21:59.105Z,20.40
2023-05-24T00:24:25.913Z,25.35
2023-05-24T00:26:52.675Z,21.38
2023-05-24T00:29:20.557Z,18.27
2023-05-24T00:31:49.476Z,19.42
2023-05-24T00:34:20.333Z,19.42
2023-05-24T00:36:47.095Z,18.30
2023-05-24T00:39:13.863Z,19.40
2023-05-24T00:41:40.689Z,16.23
2023-05-24T00:44:07.674Z,20.45
2023-05-24T00:46:35.163Z,28.55
2023-05-24T00:49:02.409Z,23.55
2023-05-24T00:51:29.312Z,19.52
2023-05-24T00:53:56.738Z,22.98
2023-05-24T00:56:23.745Z,26.13
2023-05-24T00:58:52.009Z,18.13
2023-05-24T01:01:20.509Z,25.48
2023-05-24T01:03:47.882Z,18.20
2023-05-24T01:06:15.968Z,18.52
2023-05-24T01:08:59.142Z,17.83
2023-05-24T01:11:31.822Z,22.23
2023-05-24T01:14:26.726Z,20.55
2023-05-24T01:17:06.433Z,19.23
2023-05-24T01:20:09.441Z,18.45
2023-05-24T01:22:41.545Z,18.45
2023-05-24T01:25:40.911Z,17.67
2023-05-24T01:28:09.774Z,20.65
2023-05-24T01:30:37.032Z,25.60
2023-05-24T01:33:06.878Z,25.45
2023-05-24T01:35:33.837Z,19.80
2023-05-24T01:38:00.539Z,16.70
2023-05-24T01:40:28.721Z,24.63
2023-05-24T01:43:25.583Z,21.52
2023-05-24T01:46:02.619Z,18.10
2023-05-24T01:48:58.187Z,21.25
2023-05-24T01:51:30.343Z,26.08
2023-05-24T01:53:59.162Z,19.27
2023-05-24T01:56:27.692Z,16.63
2023-05-24T01:58:56.414Z,18.35
2023-05-24T02:01:23.792Z,16.58
2023-05-24T02:03:50.713Z,15.07
2023-05-24T02:06:17.420Z,17.60
2023-05-24T02:08:44.113Z,21.25
2023-05-24T02:11:10.820Z,21.08
2023-05-24T02:13:38.803Z,30.17
2023-05-24T02:16:07.097Z,16.90
2023-05-24T02:18:34.082Z,18.65
2023-05-24T02:21:02.863Z,19.95
2023-05-24T02:23:29.839Z,21.33
2023-05-24T02:25:57.849Z,20.45
2023-05-24T02:28:24.527Z,18.92
2023-05-24T02:30:53.686Z,18.95
2023-05-24T02:33:22.628Z,20.98
2023-05-24T02:35:49.374Z,18.08
2023-05-24T02:38:16.183Z,21.40
2023-05-24T02:40:43.084Z,21.67
2023-05-24T02:43:11.341Z,21.30
2023-05-24T02:45:38.054Z,18.98
2023-05-24T02:48:04.948Z,20.08
2023-05-24T02:50:31.857Z,18.80
2023-05-24T02:52:58.580Z,19.35
2023-05-24T02:55:25.330Z,25.80
2023-05-24T02:57:52.074Z,19.30
2023-05-24T03:00:19.375Z,20.38
2023-05-24T03:02:47.620Z,22.52
2023-05-24T03:05:14.439Z,21.08
2023-05-24T03:07:42.381Z,25.83
2023-05-24T03:10:10.514Z,22.05
2023-05-24T03:12:40.060Z,27.15
2023-05-24T03:15:09.899Z,24.45
2023-05-24T03:17:40.158Z,23.50
2023-05-24T03:20:10.191Z,21.85
2023-05-24T03:22:39.850Z,27.80
2023-05-24T03:25:08.988Z,28.95
2023-05-24T03:27:38.870Z,21.52
2023-05-24T03:30:08.235Z,34.75
2023-05-24T03:32:36.410Z,20.00
2023-05-24T03:35:03.190Z,25.38
2023-05-24T03:37:29.912Z,28.52
2023-05-24T03:39:56.618Z,23.42
2023-05-24T03:42:23.356Z,28.85
2023-05-24T03:44:50.143Z,26.27
2023-05-24T03:47:16.813Z,19.30
2023-05-24T03:49:43.572Z,21.30
2023-05-24T03:52:10.286Z,19.83
2023-05-24T03:54:36.991Z,26.20
2023-05-24T03:57:03.929Z,27.88
2023-05-24T03:59:30.659Z,21.92
2023-05-24T04:01:57.397Z,27.83
2023-05-24T04:04:24.579Z,22.70
2023-05-24T04:06:51.461Z,28.55
2023-05-24T04:09:20.481Z,22.30
2023-05-24T04:11:48.359Z,25.35
2023-05-24T04:14:15.076Z,20.40
2023-05-24T04:16:42.197Z,24.23
2023-05-24T04:19:09.015Z,24.60
2023-05-24T04:21:35.791Z,25.52
2023-05-24T04:24:02.532Z,23.08
2023-05-24T04:26:30.985Z,19.67
2023-05-24T04:28:57.985Z,29.73
2023-05-24T04:31:24.761Z,23.83
2023-05-24T04:33:51.746Z,17.42
2023-05-24T04:36:18.476Z,25.55
2023-05-24T04:38:46.390Z,27.67
2023-05-24T04:41:14.582Z,20.02
2023-05-24T04:43:43.461Z,28.48
2023-05-24T04:46:10.604Z,21.10
2023-05-24T04:48:37.360Z,21.70
2023-05-24T04:51:04.420Z,27.20
2023-05-24T04:53:31.149Z,22.33
2023-05-24T04:55:57.887Z,26.25
2023-05-24T04:58:24.647Z,29.27
2023-05-24T05:00:51.377Z,24.85
2023-05-24T05:03:19.740Z,26.35
2023-05-24T05:05:46.645Z,24.33
2023-05-24T05:08:14.536Z,23.60
2023-05-24T05:10:41.460Z,27.30
2023-05-24T05:13:09.556Z,25.42
2023-05-24T05:15:37.418Z,24.73
2023-05-24T05:18:04.183Z,33.67
2023-05-24T05:20:30.996Z,31.35
2023-05-24T05:22:57.804Z,29.02
2023-05-24T05:25:24.561Z,26.58
2023-05-24T05:27:51.282Z,30.20
2023-05-24T05:30:18.082Z,28.27
2023-05-24T05:32:44.910Z,27.27
2023-05-24T05:35:11.754Z,31.75
2023-05-24T05:37:38.447Z,28.35
2023-05-24T05:40:05.579Z,27.65
2023-05-24T05:42:33.444Z,29.10
2023-05-24T05:45:03.073Z,30.60
2023-05-24T05:47:32.456Z,37.28
2023-05-24T05:50:02.244Z,33.38
2023-05-24T05:52:31.593Z,34.22
2023-05-24T05:55:19.732Z,33.67
2023-05-24T05:57:55.023Z,43.70
2023-05-24T06:00:24.979Z,28.75
2023-05-24T06:02:51.767Z,31.20
2023-05-24T06:05:20.057Z,29.90
2023-05-24T06:07:47.602Z,31.42
2023-05-24T06:10:14.414Z,32.88
2023-05-24T06:12:41.137Z,33.35
2023-05-24T06:15:09.779Z,32.42
2023-05-24T06:17:38.043Z,39.78
2023-05-24T06:20:05.289Z,39.13
2023-05-24T06:22:32.041Z,38.03
2023-05-24T06:24:58.840Z,30.98
2023-05-24T06:27:25.514Z,39.53
2023-05-24T06:29:52.386Z,32.00
2023-05-24T06:32:19.166Z,33.92
2023-05-24T06:34:47.078Z,29.60
2023-05-24T06:37:15.190Z,33.92
2023-05-24T06:39:42.067Z,38.72
2023-05-24T06:42:09.843Z,39.13
2023-05-24T06:44:37.208Z,35.78
2023-05-24T06:47:05.308Z,32.25
2023-05-24T06:49:34.405Z,31.13
2023-05-24T06:52:04.495Z,35.55
2023-05-24T06:54:32.430Z,38.58
2023-05-24T06:57:01.556Z,30.67
2023-05-24T06:59:28.295Z,38.42
2023-05-24T07:01:55.054Z,34.80
2023-05-24T07:04:21.809Z,43.22
2023-05-24T07:06:49.835Z,40.38
2023-05-24T07:09:16.527Z,34.20
2023-05-24T07:11:44.617Z,28.63
2023-05-24T07:14:11.398Z,38.17
2023-05-24T07:16:39.201Z,39.83
2023-05-24T07:19:05.973Z,45.88
2023-05-24T07:21:32.778Z,31.70
2023-05-24T07:23:59.728Z,36.40
2023-05-24T07:26:26.511Z,30.63
2023-05-24T07:28:53.302Z,37.28
2023-05-24T07:31:20.118Z,29.05
2023-05-24T07:33:46.890Z,32.92
2023-05-24T07:36:14.791Z,28.20
2023-05-24T07:38:41.543Z,31.70
2023-05-24T07:41:08.263Z,31.60
2023-05-24T07:43:35.093Z,30.17
2023-05-24T07:46:01.919Z,24.98
2023-05-24T07:48:28.726Z,34.78
2023-05-24T07:50:55.493Z,32.70
2023-05-24T07:53:22.320Z,38.33
2023-05-24T07:55:49.008Z,30.98
2023-05-24T07:58:16.223Z,36.92
2023-05-24T08:00:49.446Z,31.75
2023-05-24T08:03:16.813Z,24.50
2023-05-24T08:05:44.213Z,34.03
2023-05-24T08:08:11.150Z,32.88
2023-05-24T08:10:37.890Z,40.40
2023-05-24T08:13:04.630Z,32.67
2023-05-24T08:15:31.379Z,34.33
2023-05-24T08:20:59.936Z,29.60
2023-05-24T08:23:29.042Z,40.78
2023-05-24T08:25:58.795Z,27.13
2023-05-24T08:28:27.934Z,32.97
2023-05-24T08:30:54.838Z,33.30
2023-05-24T08:33:29.815Z,32.65
2023-05-24T08:35:56.642Z,30.20
2023-05-24T08:38:23.448Z,28.38
2023-05-24T08:40:51.463Z,29.02
2023-05-24T08:43:21.693Z,30.65
2023-05-24T08:45:50.293Z,26.48
2023-05-24T08:48:18.452Z,33.40
2023-05-24T08:50:49.674Z,28.73
2023-05-24T08:53:24.519Z,33.63
2023-05-24T08:55:53.613Z,29.23
2023-05-24T08:58:23.016Z,24.52
2023-05-24T09:00:54.553Z,27.90
2023-05-24T09:03:26.372Z,39.33
2023-05-24T09:05:55.890Z,25.98
2023-05-24T09:08:25.808Z,32.30
2023-05-24T09:10:54.892Z,26.83
2023-05-24T09:13:23.953Z,26.27
2023-05-24T09:15:51.231Z,29.23
2023-05-24T09:18:18.138Z,27.92
2023-05-24T09:20:45.302Z,29.17
2023-05-24T09:23:12.614Z,24.45
2023-05-24T09:25:45.001Z,23.98
2023-05-24T09:28:14.732Z,30.50
2023-05-24T09:30:45.990Z,34.72
2023-05-24T09:33:12.826Z,27.70
2023-05-24T09:35:43.398Z,26.73
2023-05-24T09:38:20.142Z,22.20
2023-05-24T09:40:46.903Z,27.27
2023-05-24T09:43:13.623Z,25.30
2023-05-24T09:45:45.473Z,23.02
2023-05-24T09:48:15.268Z,28.42
2023-05-24T09:50:44.448Z,28.33
2023-05-24T09:53:12.712Z,26.48
2023-05-24T09:55:40.189Z,22.15
2023-05-24T09:58:08.825Z,30.75
2023-05-24T10:00:44.475Z,20.67
2023-05-24T10:05:45.520Z,26.85
2023-05-24T10:08:14.799Z,23.20
2023-05-24T10:10:42.885Z,21.45
2023-05-24T10:13:10.158Z,28.92
2023-05-24T10:15:39.191Z,19.83
2023-05-24T10:18:08.188Z,16.45
2023-05-24T10:20:37.013Z,22.40
2023-05-24T10:23:07.554Z,18.90
2023-05-24T10:25:38.383Z,22.00
2023-05-24T10:28:10.027Z,27.20
2023-05-24T10:30:57.797Z,24.75
2023-05-24T10:33:25.911Z,21.35
2023-05-24T10:35:54.043Z,18.77
2023-05-24T10:38:23.511Z,20.67
2023-05-24T10:40:50.633Z,18.70
2023-05-24T10:43:18.077Z,19.00
2023-05-24T10:45:49.502Z,19.98
2023-05-24T10:48:16.361Z,22.42
2023-05-24T10:50:44.276Z,17.73
2023-05-24T10:53:16.853Z,14.55
2023-05-24T10:56:11.661Z,19.38
2023-05-24T10:58:58.315Z,20.67
2023-05-24T11:01:34.301Z,21.25
2023-05-24T11:04:07.081Z,17.83
2023-05-24T11:06:46.835Z,24.63
2023-05-24T11:09:14.966Z,19.83
2023-05-24T11:11:46.144Z,18.75
2023-05-24T11:14:13.219Z,15.27
2023-05-24T11:16:41.208Z,16.70
2023-05-24T11:19:29.938Z,20.58
2023-05-24T11:21:57.740Z,21.70
2023-05-24T11:24:26.437Z,20.00
2023-05-24T11:26:55.200Z,19.92
2023-05-24T11:29:22.113Z,19.27
2023-05-24T11:31:54.708Z,18.98
2023-05-24T11:34:21.672Z,15.68
2023-05-24T11:36:49.090Z,18.70
2023-05-24T11:39:16.140Z,20.88
2023-05-24T11:41:43.080Z,18.25
2023-05-24T11:44:12.134Z,18.13
2023-05-24T11:46:40.263Z,16.50
2023-05-24T11:49:13.063Z,13.80
2023-05-24T11:51:41.589Z,17.00
2023-05-24T11:54:09.141Z,17.23
2023-05-24T11:56:36.934Z,18.88
2023-05-24T11:59:25.094Z,16.52
2023-05-24T12:02:02.090Z,11.98
2023-05-24T12:04:29.872Z,15.90
2023-05-24T12:06:57.333Z,17.42
2023-05-24T12:09:24.808Z,12.20
2023-05-24T12:11:52.373Z,15.52
2023-05-24T12:14:32.865Z,13.45
2023-05-24T12:17:01.227Z,11.63
2023-05-24T12:19:34.105Z,17.35
2023-05-24T12:22:05.622Z,14.20
2023-05-24T12:24:33.944Z,16.23
2023-05-24T12:27:03.191Z,18.95
2023-05-24T12:29:38.041Z,17.35
2023-05-24T12:32:05.205Z,13.45
2023-05-24T12:34:32.703Z,19.25
2023-05-24T12:37:00.167Z,14.02
2023-05-24T12:39:30.718Z,13.23
2023-05-24T12:41:58.952Z,13.18
2023-05-24T12:44:27.948Z,19.55
2023-05-24T12:46:56.158Z,16.05
2023-05-24T12:49:26.374Z,14.52
2023-05-24T12:51:55.128Z,15.73
2023-05-24T12:54:27.191Z,12.18
2023-05-24T12:56:56.695Z,16.55
2023-05-24T12:59:24.317Z,11.50
2023-05-24T13:01:51.163Z,12.57
2023-05-24T13:04:18.935Z,15.90
2023-05-24T13:06:47.335Z,15.40
2023-05-24T13:09:14.837Z,12.05
2023-05-24T13:11:44.039Z,19.10
2023-05-24T13:14:14.371Z,13.43
2023-05-24T13:16:44.690Z,15.70
2023-05-24T13:19:15.185Z,11.48
2023-05-24T13:21:42.003Z,17.00
2023-05-24T13:24:09.033Z,13.70
2023-05-24T13:26:35.986Z,15.32
2023-05-24T13:31:34.240Z,14.15
2023-05-24T13:34:01.210Z,11.93
2023-05-24T13:36:28.062Z,14.10
2023-05-24T13:39:12.863Z,12.18
2023-05-24T13:41:41.864Z,16.20
2023-05-24T13:44:08.962Z,14.20
2023-05-24T13:46:35.796Z,18.45
2023-05-24T13:49:02.671Z,18.33
2023-05-24T13:51:29.713Z,17.98
2023-05-24T13:53:56.636Z,15.30
2023-05-24T13:56:23.548Z,15.10
2023-05-24T13:58:52.786Z,15.43
2023-05-24T14:01:21.396Z,14.20
2023-05-24T14:03:48.141Z,19.77
2023-05-24T14:06:15.159Z,13.30
2023-05-24T14:08:43.061Z,12.25
2023-05-24T14:11:10.016Z,16.90
2023-05-24T14:16:10.802Z,16.52
2023-05-24T14:18:41.184Z,14.82
2023-05-24T14:21:09.744Z,15.02
2023-05-24T14:23:40.868Z,14.68
2023-05-24T14:26:08.857Z,11.77
2023-05-24T14:28:39.083Z,18.17
2023-05-24T14:31:05.860Z,12.68
2023-05-24T14:33:32.836Z,10.38
2023-05-24T14:35:59.619Z,18.40
2023-05-24T14:38:26.417Z,19.23
2023-05-24T14:40:53.308Z,15.80
2023-05-24T14:43:20.082Z,17.77
2023-05-24T14:45:47.121Z,19.23
2023-05-24T14:48:15.107Z,11.45
2023-05-24T14:50:42.208Z,14.65
2023-05-24T14:53:09.872Z,10.55
2023-05-24T14:55:37.238Z,14.02
2023-05-24T14:58:04.836Z,13.48
2023-05-24T15:00:31.609Z,18.23
2023-05-24T15:02:59.630Z,11.10
2023-05-24T15:05:26.583Z,15.82
2023-05-24T15:07:56.196Z,10.73
2023-05-24T15:10:23.472Z,19.65
2023-05-24T15:12:51.807Z,17.27
2023-05-24T15:15:21.497Z,15.80
2023-05-24T15:17:49.723Z,19.83
2023-05-24T15:20:19.719Z,12.48
2023-05-24T15:22:48.831Z,17.70
2023-05-24T15:25:16.159Z,15.20
2023-05-24T15:27:42.922Z,13.63
2023-05-24T15:30:09.872Z,13.95
2023-05-24T15:32:36.631Z,10.73
2023-05-24T15:35:03.549Z,13.70
2023-05-24T15:37:30.291Z,16.05
2023-05-24T15:39:57.222Z,12.68
2023-05-24T15:42:24.283Z,14.40
2023-05-24T15:44:51.696Z,12.93
2023-05-24T15:47:22.192Z,12.70
2023-05-24T15:49:50.938Z,16.05
2023-05-24T15:52:17.804Z,15.00
2023-05-24T15:54:45.844Z,12.20
2023-05-24T15:57:12.799Z,16.67
2023-05-24T15:59:40.270Z,12.88
2023-05-24T16:02:08.103Z,16.17
2023-05-24T16:04:34.961Z,16.65
2023-05-24T16:07:01.773Z,12.13
2023-05-24T16:09:28.743Z,12.38
2023-05-24T16:11:55.487Z,12.88
2023-05-24T16:14:22.542Z,12.75
2023-05-24T16:16:50.282Z,16.10
2023-05-24T16:19:20.022Z,16.23
2023-05-24T16:21:46.818Z,10.95
2023-05-24T16:24:15.434Z,15.30
2023-05-24T16:26:42.509Z,12.52
2023-05-24T16:29:10.529Z,15.88
2023-05-24T16:31:37.552Z,10.48
2023-05-24T16:34:05.674Z,14.07
2023-05-24T16:36:32.686Z,13.75
2023-05-24T16:39:01.601Z,13.05
2023-05-24T16:41:28.544Z,16.63
2023-05-24T16:43:55.583Z,13.52
2023-05-24T16:46:23.867Z,13.70
2023-05-24T16:48:51.115Z,13.88
2023-05-24T16:51:18.257Z,20.20
2023-05-24T16:53:45.168Z,13.60
2023-05-24T16:56:11.960Z,16.73
2023-05-24T16:58:38.954Z,14.20
2023-05-24T17:01:05.925Z,13.13
2023-05-24T17:03:33.275Z,13.68
2023-05-24T17:06:03.551Z,15.05
2023-05-24T17:08:37.189Z,13.05
2023-05-24T17:11:05.188Z,18.33
2023-05-24T17:13:32.664Z,15.00
2023-05-24T17:16:00.330Z,18.40
2023-05-24T17:18:29.218Z,15.07
2023-05-24T17:20:57.644Z,13.82
2023-05-24T17:23:31.897Z,15.18
2023-05-24T17:26:00.167Z,16.40
2023-05-24T17:28:27.649Z,17.75
2023-05-24T17:30:59.366Z,19.25
2023-05-24T17:33:27.641Z,15.55
2023-05-24T17:35:55.558Z,11.27
2023-05-24T17:38:23.989Z,14.13
2023-05-24T17:40:52.281Z,20.23
2023-05-24T17:43:20.453Z,15.57
2023-05-24T17:45:49.009Z,13.45
2023-05-24T17:48:17.001Z,12.48
2023-05-24T17:50:43.930Z,16.75
2023-05-24T17:53:30.028Z,15.52
2023-05-24T17:55:57.995Z,18.30
2023-05-24T17:58:25.367Z,12.70
2023-05-24T18:00:52.513Z,11.90
2023-05-24T18:03:19.550Z,15.32
2023-05-24T18:05:47.016Z,16.63
2023-05-24T18:08:14.099Z,15.60
2023-05-24T18:10:42.295Z,17.77
2023-05-24T18:13:09.168Z,16.23
2023-05-24T18:15:37.656Z,19.77
2023-05-24T18:18:04.728Z,15.25
2023-05-24T18:20:32.660Z,14.75
2023-05-24T18:23:04.130Z,16.90
2023-05-24T18:26:03.110Z,18.60
2023-05-24T18:29:02.499Z,15.90
2023-05-24T18:31:40.742Z,14.68
2023-05-24T18:34:10.323Z,16.45
2023-05-24T18:36:40.823Z,16.27
2023-05-24T18:39:08.044Z,24.90
2023-05-24T18:41:56.614Z,18.38
2023-05-24T18:44:23.831Z,15.63
2023-05-24T18:46:52.170Z,13.93
2023-05-24T18:49:23.578Z,17.83
2023-05-24T18:51:54.606Z,19.20
2023-05-24T18:54:21.740Z,15.40
2023-05-24T18:56:52.479Z,14.35
2023-05-24T18:59:22.489Z,19.45
2023-05-24T19:01:50.022Z,12.68
2023-05-24T19:04:27.056Z,17.45
2023-05-24T19:06:54.409Z,23.30
2023-05-24T19:09:36.877Z,18.83
2023-05-24T19:12:09.693Z,17.85
2023-05-24T19:14:51.293Z,15.50
2023-05-24T19:17:24.710Z,17.05
2023-05-24T19:19:53.004Z,16.25
2023-05-24T19:22:21.652Z,21.88
2023-05-24T19:24:49.054Z,16.20
2023-05-24T19:27:17.190Z,16.67
2023-05-24T19:29:46.502Z,22.80
2023-05-24T19:32:13.469Z,20.40
2023-05-24T19:34:47.566Z,20.00
2023-05-24T19:37:16.739Z,15.35
2023-05-24T19:39:43.753Z,17.98
2023-05-24T19:42:12.435Z,15.98
2023-05-24T19:44:41.867Z,20.17
2023-05-24T19:47:10.207Z,18.10
2023-05-24T19:49:37.693Z,23.15
2023-05-24T19:52:05.171Z,13.43
2023-05-24T19:54:32.165Z,18.15
2023-05-24T19:56:59.447Z,11.00
2023-05-24T19:59:29.150Z,28.65
2023-05-24T20:01:56.197Z,17.75
2023-05-24T20:04:54.188Z,20.00
2023-05-24T20:07:21.466Z,19.98
2023-05-24T20:09:48.925Z,17.33
2023-05-24T20:12:22.755Z,14.63
2023-05-24T20:14:50.816Z,16.08
2023-05-24T20:17:17.825Z,18.88
2023-05-24T20:19:49.059Z,16.33
2023-05-24T20:22:16.825Z,11.52
2023-05-24T20:24:45.224Z,14.32
2023-05-24T20:27:12.499Z,23.00
2023-05-24T20:29:40.926Z,15.85
2023-05-24T20:32:10.413Z,17.60
2023-05-24T20:34:38.208Z,21.45
2023-05-24T20:37:10.159Z,14.65
2023-05-24T20:39:36.899Z,19.83
2023-05-24T20:42:04.074Z,21.50
2023-05-24T20:44:30.958Z,16.77
2023-05-24T20:46:57.838Z,21.48
2023-05-24T20:49:26.734Z,17.63
2023-05-24T20:51:56.606Z,20.98
2023-05-24T20:54:26.220Z,16.55
2023-05-24T20:56:53.242Z,23.35
2023-05-24T20:59:21.719Z,18.17
2023-05-24T21:01:51.960Z,20.73
2023-05-24T21:04:25.559Z,17.27
2023-05-24T21:06:52.333Z,24.17
2023-05-24T21:09:33.737Z,21.05
2023-05-24T21:12:07.037Z,15.32
2023-05-24T21:14:34.350Z,18.13
2023-05-24T21:17:08.998Z,18.20
2023-05-24T21:19:36.382Z,18.52
2023-05-24T21:22:15.513Z,17.73
2023-05-24T21:24:42.444Z,20.30
2023-05-24T21:27:09.230Z,15.77
2023-05-24T21:29:35.967Z,15.40
2023-05-24T21:32:02.721Z,18.58
2023-05-24T21:34:43.694Z,21.35
2023-05-24T21:37:18.977Z,18.63
2023-05-24T21:39:53.628Z,18.23
2023-05-24T21:42:24.777Z,18.33
2023-05-24T21:45:01.781Z,14.77
2023-05-24T21:47:28.600Z,13.18
2023-05-24T21:49:55.445Z,19.13
2023-05-24T21:52:26.253Z,16.98
2023-05-24T21:54:53.051Z,17.85
2023-05-24T21:57:21.021Z,14.95
2023-05-24T21:59:48.890Z,18.45
2023-05-24T22:02:15.961Z,18.15
2023-05-24T22:04:44.039Z,17.90
2023-05-24T22:07:11.048Z,17.02
2023-05-24T22:09:38.926Z,15.43
2023-05-24T22:12:08.867Z,18.92
2023-05-24T22:14:38.182Z,19.65
2023-05-24T22:17:07.698Z,21.25
2023-05-24T22:19:40.464Z,22.40
2023-05-24T22:22:11.141Z,20.00
2023-05-24T22:24:39.889Z,22.92
2023-05-24T22:27:06.918Z,18.73
2023-05-24T22:29:33.672Z,24.95
2023-05-24T22:32:00.465Z,21.55
2023-05-24T22:34:30.612Z,17.20
2023-05-24T22:36:57.924Z,25.20
2023-05-24T22:39:24.824Z,20.55
2023-05-24T22:41:52.266Z,21.00
2023-05-24T22:44:19.272Z,16.45
2023-05-24T22:46:47.763Z,17.35
2023-05-24T22:49:14.565Z,22.83
2023-05-24T22:51:42.640Z,24.10
2023-05-24T22:54:09.984Z,22.55
2023-05-24T22:56:39.440Z,21.08
2023-05-24T22:59:07.053Z,22.48
2023-05-24T23:01:34.112Z,20.35
2023-05-24T23:04:11.944Z,24.00
2023-05-24T23:06:48.364Z,20.00
2023-05-24T23:09:15.130Z,24.75
2023-05-24T23:11:41.861Z,21.27
2023-05-24T23:14:08.700Z,20.33
2023-05-24T23:16:35.646Z,22.85
2023-05-24T23:19:02.317Z,20.20
2023-05-24T23:21:29.142Z,22.58
2023-05-24T23:23:55.785Z,19.60
2023-05-24T23:26:22.629Z,21.70
2023-05-24T23:28:49.398Z,23.40
2023-05-24T23:31:17.482Z,23.83
2023-05-24T23:33:44.249Z,17.27
2023-05-24T23:36:12.126Z,20.83
2023-05-24T23:38:38.832Z,21.67
2023-05-24T23:41:08.927Z,24.95
2023-05-24T23:43:35.697Z,19.35
2023-05-24T23:46:02.451Z,17.77
2023-05-24T23:48:29.163Z,13.63
2023-05-24T23:50:55.930Z,16.77
2023-05-24T23:53:22.745Z,14.88
2023-05-24T23:55:49.524Z,16.90
2023-05-24T23:58:16.330Z,15.05
